Time;durP1;ratioP1;P1;durP2;ratioP2;P2;SDS_P1;SDS_P2;PMS_P1;PMS_P2;Temp;Humidity;BMP_temperature;BMP_pressure;BME280_temperature;BME280_humidity;BME280_pressure;Samples;Min_cycle;Max_cycle;Signal;HPM_P1;HPM_P2
2023/07/22 00:00:38;;;;;;;;;;;;;;;21.80;nan;101049.41;5060657;28;19939;-87
2023/07/22 00:03:03;;;;;;;;;;;;;;;21.74;nan;101058.84;5061259;28;19920;-87
2023/07/22 00:05:28;;;;;;;;;;;;;;;21.70;nan;101055.91;5060672;28;20066;-87
2023/07/22 00:07:54;;;;;;;;;;;;;;;21.63;nan;101052.88;5057972;28;20004;-86
2023/07/22 00:10:19;;;;;;;;;;;;;;;21.59;nan;101052.69;5062061;28;19974;-87
2023/07/22 00:12:44;;;;;;;;;;;;;;;21.54;nan;101054.72;5062818;28;19921;-87
2023/07/22 00:15:12;;;;;;;;;;;;;;;21.45;nan;101043.00;5062150;28;19925;-87
2023/07/22 00:17:41;;;;;;;;;;;;;;;21.37;nan;101044.56;5061356;28;20011;-88
2023/07/22 00:20:09;;;;;;;;;;;;;;;21.30;nan;101039.56;5061785;28;20033;-86
2023/07/22 00:22:35;;;;;;;;;;;;;;;21.26;nan;101044.03;5065565;28;19999;-87
2023/07/22 00:25:01;;;;;;;;;;;;;;;21.23;nan;101043.81;5064110;28;19964;-87
2023/07/22 00:27:26;;;;;;;;;;;;;;;21.23;nan;101052.81;5057030;28;19967;-87
2023/07/22 00:29:52;;;;;;;;;;;;;;;21.24;nan;101050.88;5061631;28;19917;-87
2023/07/22 00:32:17;;;;;;;;;;;;;;;21.22;nan;101048.47;5061111;28;19928;-87
2023/07/22 00:34:42;;;;;;;;;;;;;;;21.19;nan;101040.13;5059980;28;20371;-87
2023/07/22 00:37:08;;;;;;;;;;;;;;;21.16;nan;101036.06;5058662;28;19924;-87
2023/07/22 00:39:33;;;;;;;;;;;;;;;21.16;nan;101036.06;5062159;28;20487;-87
2023/07/22 00:41:59;;;;;;;;;;;;;;;21.16;nan;101041.53;5061265;28;19939;-86
2023/07/22 00:44:25;;;;;;;;;;;;;;;21.15;nan;101042.66;5063109;28;19931;-86
2023/07/22 00:46:53;;;;;;;;;;;;;;;21.13;nan;101034.78;5060183;28;20000;-88
2023/07/22 00:49:19;;;;;;;;;;;;;;;21.14;nan;101035.59;5059331;28;20205;-87
2023/07/22 00:51:44;;;;;;;;;;;;;;;21.11;nan;101031.56;5058784;28;19924;-87
2023/07/22 00:54:10;;;;;;;;;;;;;;;21.11;nan;101028.84;5059599;28;20015;-87
2023/07/22 00:56:36;;;;;;;;;;;;;;;21.10;nan;101023.72;5058388;28;19921;-87
2023/07/22 00:59:01;;;;;;;;;;;;;;;21.10;nan;101034.59;5059576;28;19920;-87
2023/07/22 01:01:26;;;;;;;;;;;;;;;21.10;nan;101031.88;5058756;28;19931;-87
2023/07/22 01:03:52;;;;;;;;;;;;;;;21.09;nan;101033.00;5060697;28;19923;-88
2023/07/22 01:06:18;;;;;;;;;;;;;;;21.10;nan;101027.25;5060431;28;20455;-87
2023/07/22 01:08:43;;;;;;;;;;;;;;;21.13;nan;101029.34;5061484;28;19919;-87
2023/07/22 01:11:08;;;;;;;;;;;;;;;21.17;nan;101024.06;5059112;28;19941;-87
2023/07/22 01:13:33;;;;;;;;;;;;;;;21.22;nan;101026.69;5058426;28;20323;-88
2023/07/22 01:15:59;;;;;;;;;;;;;;;21.24;nan;101023.63;5060044;28;19975;-86
2023/07/22 01:18:25;;;;;;;;;;;;;;;21.23;nan;101013.84;5059599;28;19934;-87
2023/07/22 01:20:50;;;;;;;;;;;;;;;21.20;nan;101014.47;5062563;28;20072;-88
2023/07/22 01:23:16;;;;;;;;;;;;;;;21.18;nan;101017.50;5059721;28;20292;-87
2023/07/22 01:25:42;;;;;;;;;;;;;;;21.15;nan;101007.22;5055565;28;19962;-87
2023/07/22 01:28:11;;;;;;;;;;;;;;;21.15;nan;101020.84;5055986;28;19917;-87
2023/07/22 01:30:36;;;;;;;;;;;;;;;21.16;nan;101006.09;5059751;28;19943;-87
2023/07/22 01:33:01;;;;;;;;;;;;;;;21.16;nan;101003.38;5054908;28;19920;-87
2023/07/22 01:35:27;;;;;;;;;;;;;;;21.17;nan;101007.72;5056316;28;19936;-87
2023/07/22 01:37:52;;;;;;;;;;;;;;;21.20;nan;101014.47;5057843;28;20435;-87
2023/07/22 01:40:17;;;;;;;;;;;;;;;21.20;nan;101006.31;5058357;28;19925;-87
2023/07/22 01:42:43;;;;;;;;;;;;;;;21.20;nan;101001.66;5053922;28;19920;-87
2023/07/22 01:45:09;;;;;;;;;;;;;;;21.20;nan;101012.56;5054743;28;20457;-87
2023/07/22 01:47:35;;;;;;;;;;;;;;;21.22;nan;101004.88;5057812;28;20591;-87
2023/07/22 01:50:01;;;;;;;;;;;;;;;21.20;nan;101007.09;5058752;28;20011;-87
2023/07/22 01:52:26;;;;;;;;;;;;;;;21.23;nan;101001.03;5056688;28;20001;-87
2023/07/22 01:54:51;;;;;;;;;;;;;;;21.28;nan;101002.84;5057001;28;19998;-87
2023/07/22 01:57:16;;;;;;;;;;;;;;;21.31;nan;101003.00;5053430;28;19916;-86
2023/07/22 01:59:42;;;;;;;;;;;;;;;21.32;nan;101010.06;5047104;28;19924;-87
2023/07/22 02:02:07;;;;;;;;;;;;;;;21.34;nan;101009.75;5057881;28;20304;-87
2023/07/22 02:04:32;;;;;;;;;;;;;;;21.34;nan;101013.28;5056985;28;20277;-87
2023/07/22 02:06:58;;;;;;;;;;;;;;;21.29;nan;101013.41;5057719;28;19931;-87
2023/07/22 02:09:23;;;;;;;;;;;;;;;21.24;nan;101007.28;5057995;28;19920;-87
2023/07/22 02:11:49;;;;;;;;;;;;;;;21.22;nan;101009.53;5057911;28;19920;-87
2023/07/22 02:14:14;;;;;;;;;;;;;;;21.21;nan;101008.72;5057327;28;19960;-86
2023/07/22 02:16:39;;;;;;;;;;;;;;;21.22;nan;101012.25;5056547;28;19920;-87
2023/07/22 02:19:04;;;;;;;;;;;;;;;21.24;nan;101008.13;5057244;28;19928;-87
2023/07/22 02:21:30;;;;;;;;;;;;;;;21.25;nan;101009.72;5058960;28;19924;-87
2023/07/22 02:23:55;;;;;;;;;;;;;;;21.26;nan;101010.53;5060464;28;19916;-87
2023/07/22 02:26:20;;;;;;;;;;;;;;;21.30;nan;101011.50;5055924;28;20388;-87
2023/07/22 02:28:46;;;;;;;;;;;;;;;21.32;nan;101010.06;5058353;28;19916;-87
2023/07/22 02:31:12;;;;;;;;;;;;;;;21.33;nan;101019.84;5060971;28;20499;-87
2023/07/22 02:33:37;;;;;;;;;;;;;;;21.33;nan;101019.84;5061131;28;20171;-87
2023/07/22 02:36:03;;;;;;;;;;;;;;;21.34;nan;101017.94;5060256;28;20024;-86
2023/07/22 02:38:28;;;;;;;;;;;;;;;21.34;nan;101021.44;5060015;28;19927;-87
2023/07/22 02:40:54;;;;;;;;;;;;;;;21.36;nan;101021.97;5059971;28;20022;-87
2023/07/22 02:43:19;;;;;;;;;;;;;;;21.37;nan;101020.84;5056809;28;19929;-86
2023/07/22 02:45:44;;;;;;;;;;;;;;;21.38;nan;101030.63;5060055;28;19921;-87
2023/07/22 02:48:09;;;;;;;;;;;;;;;21.39;nan;101037.69;5060482;28;20468;-86
2023/07/22 02:50:36;;;;;;;;;;;;;;;21.37;nan;101029.03;5059656;28;19923;-86
2023/07/22 02:53:01;;;;;;;;;;;;;;;21.33;nan;101028.03;5058841;28;20453;-87
2023/07/22 02:55:27;;;;;;;;;;;;;;;21.32;nan;101033.78;5059921;28;19916;-87
2023/07/22 02:57:52;;;;;;;;;;;;;;;21.32;nan;101041.97;5054623;28;19940;-88
2023/07/22 03:00:25;;;;;;;;;;;;;;;21.30;nan;101042.28;5062096;28;19924;-87
2023/07/22 03:02:52;;;;;;;;;;;;;;;21.30;nan;101049.66;5057704;28;19979;-87
2023/07/22 03:05:17;;;;;;;;;;;;;;;21.29;nan;101051.56;5059865;28;20478;-87
2023/07/22 03:07:42;;;;;;;;;;;;;;;21.30;nan;101052.38;5058377;28;19963;-87
2023/07/22 03:10:08;;;;;;;;;;;;;;;21.33;nan;101059.94;5054471;28;19925;-87
2023/07/22 03:12:34;;;;;;;;;;;;;;;21.35;nan;101055.75;5049622;28;19928;-87
2023/07/22 03:14:59;;;;;;;;;;;;;;;21.38;nan;101057.09;5056550;28;20023;-87
2023/07/22 03:17:25;;;;;;;;;;;;;;;21.41;nan;101070.88;5057330;28;19927;-87
2023/07/22 03:19:51;;;;;;;;;;;;;;;21.42;nan;101063.50;5057286;28;19921;-87
2023/07/22 03:22:16;;;;;;;;;;;;;;;21.41;nan;101068.16;5058684;28;19927;-86
2023/07/22 03:24:42;;;;;;;;;;;;;;;21.42;nan;101056.13;5056200;28;20284;-87
2023/07/22 03:27:07;;;;;;;;;;;;;;;21.47;nan;101073.47;5049649;28;19927;-87
2023/07/22 03:29:33;;;;;;;;;;;;;;;21.52;nan;101073.31;5058458;28;19921;-87
2023/07/22 03:31:59;;;;;;;;;;;;;;;21.51;nan;101083.44;5059414;28;19974;-85
2023/07/22 03:34:26;;;;;;;;;;;;;;;21.51;nan;101082.63;5052932;28;19917;-85
2023/07/22 03:36:52;;;;;;;;;;;;;;;21.55;nan;101094.53;5055370;28;19962;-86
2023/07/22 03:39:17;;;;;;;;;;;;;;;21.54;nan;101092.91;5058353;28;19920;-87
2023/07/22 03:41:42;;;;;;;;;;;;;;;21.53;nan;101097.53;5056762;28;19974;-88
2023/07/22 03:44:07;;;;;;;;;;;;;;;21.54;nan;101103.81;5060142;28;19947;-86
2023/07/22 03:46:33;;;;;;;;;;;;;;;21.53;nan;101103.00;5056817;28;19947;-86
2023/07/22 03:48:58;;;;;;;;;;;;;;;21.57;nan;101101.28;5056575;28;19916;-86
2023/07/22 03:51:23;;;;;;;;;;;;;;;21.62;nan;101101.13;5056313;28;19924;-87
2023/07/22 03:53:49;;;;;;;;;;;;;;;21.67;nan;101108.38;5056114;28;19924;-87
2023/07/22 03:56:14;;;;;;;;;;;;;;;21.73;nan;101107.13;5059101;28;19985;-87
2023/07/22 03:58:39;;;;;;;;;;;;;;;21.77;nan;101112.75;5054157;28;20376;-88
2023/07/22 04:01:04;;;;;;;;;;;;;;;21.79;nan;101111.31;5058425;28;20211;-86
2023/07/22 04:03:30;;;;;;;;;;;;;;;21.84;nan;101105.72;5059402;28;19927;-89
2023/07/22 04:05:58;;;;;;;;;;;;;;;21.84;nan;101116.63;5059118;28;19916;-86
2023/07/22 04:08:23;;;;;;;;;;;;;;;21.82;nan;101116.16;5057697;28;19978;-86
2023/07/22 04:10:52;;;;;;;;;;;;;;;21.76;nan;101120.13;5062932;28;19925;-86
2023/07/22 04:13:18;;;;;;;;;;;;;;;21.72;nan;101105.50;5059178;28;19917;-86
2023/07/22 04:15:43;;;;;;;;;;;;;;;21.70;nan;101110.47;5062008;28;19920;-86
2023/07/22 04:18:08;;;;;;;;;;;;;;;21.70;nan;101107.75;5061156;28;20001;-86
2023/07/22 04:20:34;;;;;;;;;;;;;;;21.71;nan;101115.59;5061341;28;20388;-86
2023/07/22 04:22:59;;;;;;;;;;;;;;;21.79;nan;101105.06;5059461;28;19926;-85
2023/07/22 04:25:24;;;;;;;;;;;;;;;21.81;nan;101108.28;5059450;28;19924;-85
2023/07/22 04:27:50;;;;;;;;;;;;;;;21.85;nan;101109.25;5057080;28;20555;-85
2023/07/22 04:30:20;;;;;;;;;;;;;;;21.84;nan;101113.91;5062107;28;19978;-85
2023/07/22 04:32:46;;;;;;;;;;;;;;;21.87;nan;101116.00;5063062;28;19916;-86
2023/07/22 04:35:12;;;;;;;;;;;;;;;21.91;nan;101111.53;5057345;28;19970;-85
2023/07/22 04:37:37;;;;;;;;;;;;;;;21.96;nan;101118.78;5059952;28;19924;-86
2023/07/22 04:40:06;;;;;;;;;;;;;;;22.00;nan;101123.28;5059746;28;19929;-86
2023/07/22 04:42:31;;;;;;;;;;;;;;;22.05;nan;101124.28;5059954;28;19943;-86
2023/07/22 04:44:56;;;;;;;;;;;;;;;22.05;nan;101125.06;5060469;28;20494;-85
2023/07/22 04:47:22;;;;;;;;;;;;;;;22.10;nan;101124.16;5059051;28;20213;-86
2023/07/22 04:49:47;;;;;;;;;;;;;;;22.13;nan;101128.97;5057894;28;20388;-85
2023/07/22 04:52:12;;;;;;;;;;;;;;;22.17;nan;101132.66;5060705;28;19924;-85
2023/07/22 04:54:38;;;;;;;;;;;;;;;22.18;nan;101126.91;5059051;28;19928;-86
2023/07/22 04:57:03;;;;;;;;;;;;;;;22.19;nan;101144.06;5059667;28;20348;-85
2023/07/22 04:59:28;;;;;;;;;;;;;;;22.22;nan;101141.50;5057938;28;19939;-86
2023/07/22 05:01:54;;;;;;;;;;;;;;;22.22;nan;101140.72;5061738;28;19923;-87
2023/07/22 05:04:20;;;;;;;;;;;;;;;22.22;nan;101140.72;5060336;28;20411;-86
2023/07/22 05:06:45;;;;;;;;;;;;;;;22.19;nan;101144.88;5056647;28;20107;-86
2023/07/22 05:09:10;;;;;;;;;;;;;;;22.24;nan;101146.66;5061572;28;19931;-86
2023/07/22 05:11:36;;;;;;;;;;;;;;;22.27;nan;101146.84;5058700;28;20388;-87
2023/07/22 05:14:01;;;;;;;;;;;;;;;22.29;nan;101151.97;5058637;28;20407;-86
2023/07/22 05:16:26;;;;;;;;;;;;;;;22.31;nan;101147.81;5058567;28;20393;-87
2023/07/22 05:18:52;;;;;;;;;;;;;;;22.35;nan;101149.91;5059830;28;20523;-86
2023/07/22 05:21:17;;;;;;;;;;;;;;;22.42;nan;101151.03;5061297;28;19921;-87
2023/07/22 05:23:42;;;;;;;;;;;;;;;22.46;nan;101146.56;5059574;28;19924;-86
2023/07/22 05:26:07;;;;;;;;;;;;;;;22.46;nan;101156.69;5058977;28;20021;-85
2023/07/22 05:28:34;;;;;;;;;;;;;;;22.49;nan;101145.94;5055923;28;19997;-87
2023/07/22 05:30:59;;;;;;;;;;;;;;;22.56;nan;101154.44;5058590;28;19932;-86
2023/07/22 05:33:24;;;;;;;;;;;;;;;22.63;nan;101156.72;5058612;28;19917;-86
2023/07/22 05:35:50;;;;;;;;;;;;;;;22.67;nan;101165.88;5059024;28;19920;-87
2023/07/22 05:38:15;;;;;;;;;;;;;;;22.69;nan;101177.28;5060563;28;20027;-87
2023/07/22 05:40:40;;;;;;;;;;;;;;;22.71;nan;101168.78;5056124;28;19931;-88
2023/07/22 05:43:05;;;;;;;;;;;;;;;22.71;nan;101171.50;5058427;28;19916;-88
2023/07/22 05:45:31;;;;;;;;;;;;;;;22.79;nan;101170.69;5057574;28;19924;-87
2023/07/22 05:47:56;;;;;;;;;;;;;;;22.86;nan;101182.81;5055822;28;20415;-86
2023/07/22 05:50:21;;;;;;;;;;;;;;;22.90;nan;101185.69;5061775;28;20315;-86
2023/07/22 05:52:48;;;;;;;;;;;;;;;22.90;nan;101189.22;5055106;28;20079;-87
2023/07/22 05:55:13;;;;;;;;;;;;;;;22.84;nan;101181.50;5058708;28;19959;-86
2023/07/22 05:57:38;;;;;;;;;;;;;;;22.88;nan;101190.69;5060317;28;20217;-87
2023/07/22 06:00:04;;;;;;;;;;;;;;;22.92;nan;101186.16;5055957;28;19979;-87
2023/07/22 06:02:29;;;;;;;;;;;;;;;23.04;nan;101189.09;5060781;28;20439;-86
2023/07/22 06:04:54;;;;;;;;;;;;;;;23.10;nan;101181.50;5056183;28;19946;-87
2023/07/22 06:07:20;;;;;;;;;;;;;;;23.08;nan;101181.84;5060532;28;20368;-87
2023/07/22 06:09:45;;;;;;;;;;;;;;;23.15;nan;101178.63;5059434;28;19917;-87
2023/07/22 06:12:10;;;;;;;;;;;;;;;23.19;nan;101174.13;5060012;28;19931;-87
2023/07/22 06:14:36;;;;;;;;;;;;;;;23.23;nan;101174.28;5059361;28;19920;-87
2023/07/22 06:17:01;;;;;;;;;;;;;;;23.31;nan;101178.94;5057021;28;19924;-85
2023/07/22 06:19:27;;;;;;;;;;;;;;;23.43;nan;101179.09;5056948;28;19921;-86
2023/07/22 06:21:52;;;;;;;;;;;;;;;23.57;nan;101182.47;5058700;28;20505;-88
2023/07/22 06:24:17;;;;;;;;;;;;;;;23.68;nan;101180.97;5056992;28;19932;-89
2023/07/22 06:26:43;;;;;;;;;;;;;;;23.81;nan;101190.94;5061399;28;20384;-88
2023/07/22 06:29:08;;;;;;;;;;;;;;;23.85;nan;101195.75;5062609;28;19924;-87
2023/07/22 06:31:33;;;;;;;;;;;;;;;23.87;nan;101188.00;5056394;28;20385;-88
2023/07/22 06:33:59;;;;;;;;;;;;;;;23.93;nan;101189.47;5059974;28;19936;-88
2023/07/22 06:36:25;;;;;;;;;;;;;;;23.91;nan;101194.47;5057599;28;20208;-89
2023/07/22 06:38:50;;;;;;;;;;;;;;;23.91;nan;101197.19;5058745;28;20330;-88
2023/07/22 06:41:15;;;;;;;;;;;;;;;23.86;nan;101183.66;5059445;28;19923;-92
2023/07/22 06:43:41;;;;;;;;;;;;;;;23.81;nan;101196.41;5062666;28;19955;-88
2023/07/22 06:46:06;;;;;;;;;;;;;;;23.84;nan;101184.00;5059133;28;19920;-90
2023/07/22 06:48:31;;;;;;;;;;;;;;;23.89;nan;101186.59;5058184;28;20310;-88
2023/07/22 06:50:57;;;;;;;;;;;;;;;23.93;nan;101189.47;5059927;28;20407;-87
2023/07/22 06:53:22;;;;;;;;;;;;;;;23.96;nan;101186.06;5054963;28;20447;-89
2023/07/22 06:55:48;;;;;;;;;;;;;;;24.02;nan;101191.03;5057256;28;19933;-88
2023/07/22 06:58:13;;;;;;;;;;;;;;;24.12;nan;101198.06;5058543;28;19934;-88
2023/07/22 07:00:39;;;;;;;;;;;;;;;24.19;nan;101195.63;5058055;28;19921;-90
2023/07/22 07:03:04;;;;;;;;;;;;;;;24.25;nan;101193.53;5061635;28;19978;-89
2023/07/22 07:05:29;;;;;;;;;;;;;;;24.32;nan;101197.38;5058726;28;19921;-89
2023/07/22 07:07:55;;;;;;;;;;;;;;;24.45;nan;101192.81;5057608;28;19921;-89
2023/07/22 07:10:20;;;;;;;;;;;;;;;24.56;nan;101193.19;5062683;28;20304;-88
2023/07/22 07:12:45;;;;;;;;;;;;;;;24.70;nan;101194.56;5060245;28;19917;-93
2023/07/22 07:15:11;;;;;;;;;;;;;;;24.86;nan;101193.97;5058624;28;19924;-89
2023/07/22 07:17:36;;;;;;;;;;;;;;;24.89;nan;101199.59;5058189;28;19924;-88
2023/07/22 07:20:01;;;;;;;;;;;;;;;24.98;nan;101194.88;5059313;28;19929;-88
2023/07/22 07:22:27;;;;;;;;;;;;;;;25.08;nan;101193.69;5055469;28;19929;-87
2023/07/22 07:24:52;;;;;;;;;;;;;;;25.17;nan;101205.38;5055110;28;19923;-89
2023/07/22 07:27:17;;;;;;;;;;;;;;;25.10;nan;101202.38;5058550;28;19916;-90
2023/07/22 07:29:43;;;;;;;;;;;;;;;25.07;nan;101213.19;5061065;28;19920;-91
2023/07/22 07:32:08;;;;;;;;;;;;;;;25.07;nan;101210.47;5052395;28;19968;-90
2023/07/22 07:34:33;;;;;;;;;;;;;;;25.16;nan;101208.47;5058854;28;19924;-91
2023/07/22 07:36:58;;;;;;;;;;;;;;;25.29;nan;101221.88;5057682;28;19923;-89
2023/07/22 07:39:24;;;;;;;;;;;;;;;25.24;nan;101224.03;5061432;28;19969;-89
2023/07/22 07:41:49;;;;;;;;;;;;;;;25.19;nan;101224.25;5070774;28;19925;-92
2023/07/22 07:44:14;;;;;;;;;;;;;;;25.23;nan;101231.47;5059451;28;20004;-92
2023/07/22 07:46:40;;;;;;;;;;;;;;;25.36;nan;101228.78;5064708;28;20189;-90
2023/07/22 07:49:05;;;;;;;;;;;;;;;25.47;nan;101221.72;5070421;28;19920;-94
2023/07/22 07:51:31;;;;;;;;;;;;;;;25.62;nan;101223.84;5069095;28;19924;-96
2023/07/22 07:53:59;;;;;;;;;;;;;;;25.72;nan;101233.63;5068286;28;19966;-95
2023/07/22 07:56:25;;;;;;;;;;;;;;;25.67;nan;101231.84;5060826;28;19917;-91
2023/07/22 07:58:53;;;;;;;;;;;;;;;25.72;nan;101228.16;5057971;28;20026;-89
2023/07/22 08:01:19;;;;;;;;;;;;;;;25.76;nan;101240.03;5057803;28;20013;-89
2023/07/22 08:03:44;;;;;;;;;;;;;;;25.87;nan;101241.22;5060872;28;19952;-90
2023/07/22 08:06:10;;;;;;;;;;;;;;;25.98;nan;101239.63;5061037;28;20281;-93
2023/07/22 08:08:36;;;;;;;;;;;;;;;25.94;nan;101238.72;5059888;28;19927;-92
2023/07/22 08:11:04;;;;;;;;;;;;;;;25.99;nan;101233.00;5063795;28;19924;-93
2023/07/22 08:13:31;;;;;;;;;;;;;;;25.99;nan;101246.72;5061743;28;20296;-89
2023/07/22 08:16:01;;;;;;;;;;;;;;;26.01;nan;101249.13;5062513;28;19920;-90
2023/07/22 08:18:26;;;;;;;;;;;;;;;25.87;nan;101241.22;5064058;28;19927;-92
2023/07/22 08:20:52;;;;;;;;;;;;;;;25.66;nan;101241.22;5064999;28;19916;-89
2023/07/22 08:23:17;;;;;;;;;;;;;;;25.64;nan;101237.22;5068543;28;20296;-93
2023/07/22 08:25:43;;;;;;;;;;;;;;;25.71;nan;101243.81;5063768;28;19921;-87
2023/07/22 08:28:08;;;;;;;;;;;;;;;25.78;nan;101246.00;5067850;28;19920;-91
2023/07/22 08:30:34;;;;;;;;;;;;;;;25.86;nan;101256.91;5062759;28;19924;-90
2023/07/22 08:32:59;;;;;;;;;;;;;;;25.94;nan;101249.69;5061348;28;19990;-93
2023/07/22 08:35:26;;;;;;;;;;;;;;;26.02;nan;101253.47;5066582;28;19924;-96
2023/07/22 08:37:51;;;;;;;;;;;;;;;26.00;nan;101262.06;5061583;28;19959;-94
2023/07/22 08:40:17;;;;;;;;;;;;;;;26.06;nan;101255.22;5062730;28;19959;-94
2023/07/22 08:42:45;;;;;;;;;;;;;;;26.16;nan;101253.97;5062943;28;19970;-91
2023/07/22 08:45:11;;;;;;;;;;;;;;;26.07;nan;101259.56;5067290;28;19939;-90
2023/07/22 08:47:44;;;;;;;;;;;;;;;25.93;nan;101255.53;5062831;28;19931;-92
2023/07/22 08:50:11;;;;;;;;;;;;;;;25.88;nan;101262.84;5067486;28;19921;-89
2023/07/22 08:52:37;;;;;;;;;;;;;;;25.87;nan;101265.94;5061350;28;20367;-90
2023/07/22 08:55:03;;;;;;;;;;;;;;;25.88;nan;101270.28;5059736;28;19924;-90
2023/07/22 08:57:29;;;;;;;;;;;;;;;25.90;nan;101265.25;5060801;28;20011;-88
2023/07/22 08:59:54;;;;;;;;;;;;;;;25.94;nan;101273.59;5064047;28;20019;-91
2023/07/22 09:02:20;;;;;;;;;;;;;;;25.98;nan;101264.34;5056499;28;19995;-87
2023/07/22 09:04:46;;;;;;;;;;;;;;;26.09;nan;101282.00;5059944;28;19952;-90
2023/07/22 09:07:12;;;;;;;;;;;;;;;26.15;nan;101274.34;5065210;28;19916;-88
2023/07/22 09:09:37;;;;;;;;;;;;;;;26.08;nan;101283.16;5062846;28;19942;-92
2023/07/22 09:12:03;;;;;;;;;;;;;;;26.04;nan;101279.47;5063407;28;20546;-89
2023/07/22 09:14:30;;;;;;;;;;;;;;;26.04;nan;101282.22;5060462;28;20422;-87
2023/07/22 09:16:56;;;;;;;;;;;;;;;26.11;nan;101282.47;5053236;28;19917;-86
2023/07/22 09:19:21;;;;;;;;;;;;;;;26.24;nan;101282.50;5053641;28;19927;-90
2023/07/22 09:21:46;;;;;;;;;;;;;;;26.32;nan;101287.06;5062229;28;20296;-93
2023/07/22 09:24:21;;;;;;;;;;;;;;;26.39;nan;101287.31;5060885;28;19917;-91
2023/07/22 09:26:46;;;;;;;;;;;;;;;26.39;nan;101301.06;5062959;28;20209;-88
2023/07/22 09:29:12;;;;;;;;;;;;;;;26.39;nan;101290.06;5064879;28;19959;-89
2023/07/22 09:31:48;;;;;;;;;;;;;;;26.43;nan;101291.81;5065716;28;19924;-91
2023/07/22 09:34:13;;;;;;;;;;;;;;;26.49;nan;101289.63;5063345;28;19921;-89
2023/07/22 09:36:57;;;;;;;;;;;;;;;26.50;nan;101292.03;5059220;28;19925;-91
2023/07/22 09:39:23;;;;;;;;;;;;;;;26.55;nan;101287.44;5062759;28;19928;-91
2023/07/22 09:41:49;;;;;;;;;;;;;;;26.78;nan;101292.16;5061558;28;19924;-87
2023/07/22 09:44:14;;;;;;;;;;;;;;;26.92;nan;101291.78;5064778;28;19916;-96
2023/07/22 09:46:40;;;;;;;;;;;;;;;26.97;nan;101299.81;5065884;28;19920;-92
2023/07/22 09:49:06;;;;;;;;;;;;;;;26.88;nan;101284.59;5061955;28;20389;-87
2023/07/22 09:51:38;;;;;;;;;;;;;;;26.79;nan;101287.47;5067657;28;19925;-93
2023/07/22 09:54:05;;;;;;;;;;;;;;;26.88;nan;101287.34;5067025;28;19924;-90
2023/07/22 09:56:30;;;;;;;;;;;;;;;27.07;nan;101287.56;5062330;28;20005;-94
2023/07/22 09:59:01;;;;;;;;;;;;;;;27.23;nan;101285.69;5061143;28;19921;-94
2023/07/22 10:01:27;;;;;;;;;;;;;;;27.31;nan;101298.53;5052206;28;19978;-90
2023/07/22 10:03:54;;;;;;;;;;;;;;;27.26;nan;101290.50;5061436;28;19951;-91
2023/07/22 10:06:20;;;;;;;;;;;;;;;27.24;nan;101292.81;5058252;28;19928;-89
2023/07/22 10:08:47;;;;;;;;;;;;;;;27.42;nan;101287.81;5062020;28;20007;-89
2023/07/22 10:11:14;;;;;;;;;;;;;;;27.64;nan;101294.75;5057043;28;19916;-89
2023/07/22 10:13:39;;;;;;;;;;;;;;;27.73;nan;101278.09;5066785;28;19985;-87
2023/07/22 10:16:05;;;;;;;;;;;;;;;27.85;nan;101272.53;5068293;28;20414;-89
2023/07/22 10:18:32;;;;;;;;;;;;;;;27.76;nan;101280.94;5064239;28;19924;-94
2023/07/22 10:20:58;;;;;;;;;;;;;;;27.75;nan;101271.09;5065976;28;19920;-94
2023/07/22 10:23:25;;;;;;;;;;;;;;;27.82;nan;101279.53;5064514;28;20019;-89
2023/07/22 10:25:50;;;;;;;;;;;;;;;27.91;nan;101268.38;5063746;28;19921;-88
2023/07/22 10:28:16;;;;;;;;;;;;;;;27.96;nan;101285.44;5069970;28;20447;-87
2023/07/22 10:30:42;;;;;;;;;;;;;;;27.86;nan;101293.41;5070964;28;19924;-94
2023/07/22 10:33:08;;;;;;;;;;;;;;;27.63;nan;101269.19;5068975;28;19921;-91
2023/07/22 10:35:33;;;;;;;;;;;;;;;27.67;nan;101272.06;5069101;28;19923;-93
2023/07/22 10:38:12;;;;;;;;;;;;;;;27.89;nan;101265.97;5067026;28;19924;-91
2023/07/22 10:40:50;;;;;;;;;;;;;;;28.06;nan;101272.31;5069531;28;20411;-90
2023/07/22 10:43:17;;;;;;;;;;;;;;;28.15;nan;101276.47;5071639;28;19974;-95
2023/07/22 10:45:43;;;;;;;;;;;;;;;28.08;nan;101276.31;5062875;28;20552;-90
2023/07/22 10:48:13;;;;;;;;;;;;;;;27.96;nan;101281.88;5065467;28;19927;-90
2023/07/22 10:50:43;;;;;;;;;;;;;;;27.85;nan;101281.59;5059309;28;19960;-86
2023/07/22 10:53:31;;;;;;;;;;;;;;;27.99;nan;101279.19;5065957;28;19916;-92
2023/07/22 10:56:07;;;;;;;;;;;;;;;27.99;nan;101276.44;5045786;28;19970;-92
2023/07/22 10:58:53;;;;;;;;;;;;;;;27.89;nan;101278.94;5069128;28;20541;-91
2023/07/22 11:01:31;;;;;;;;;;;;;;;27.89;nan;101284.44;5051522;28;20015;-89
2023/07/22 11:04:11;;;;;;;;;;;;;;;28.01;nan;101292.66;5063186;28;19927;-87
2023/07/22 11:06:46;;;;;;;;;;;;;;;28.13;nan;101281.53;5058528;28;20027;-90
2023/07/22 11:09:30;;;;;;;;;;;;;;;28.22;nan;101284.13;5064156;28;19950;-91
2023/07/22 11:11:59;;;;;;;;;;;;;;;28.25;nan;101289.75;5055622;28;19925;-90
2023/07/22 11:14:25;;;;;;;;;;;;;;;28.25;nan;101297.19;5056941;28;19924;-89
2023/07/22 11:16:51;;;;;;;;;;;;;;;28.28;nan;101294.56;5066444;28;20186;-96
2023/07/22 11:19:18;;;;;;;;;;;;;;;28.28;nan;101296.50;5066104;28;20455;-88
2023/07/22 11:21:44;;;;;;;;;;;;;;;28.26;nan;101293.31;5067789;28;19960;-96
2023/07/22 11:24:09;;;;;;;;;;;;;;;28.24;nan;101290.88;5063735;28;19966;-92
2023/07/22 11:26:35;;;;;;;;;;;;;;;28.13;nan;101289.81;5072727;28;19952;-95
2023/07/22 11:29:01;;;;;;;;;;;;;;;28.10;nan;101290.50;5073740;28;19920;-89
2023/07/22 11:31:34;;;;;;;;;;;;;;;28.12;nan;101293.72;5064413;28;20147;-95
2023/07/22 11:33:59;;;;;;;;;;;;;;;28.17;nan;101287.13;5063485;28;19917;-89
2023/07/22 11:36:26;;;;;;;;;;;;;;;28.19;nan;101293.91;5067422;28;20050;-90
2023/07/22 11:38:51;;;;;;;;;;;;;;;28.19;nan;101287.59;5065208;28;19920;-93
2023/07/22 11:41:17;;;;;;;;;;;;;;;28.12;nan;101298.41;5066502;28;20078;-91
2023/07/22 11:43:43;;;;;;;;;;;;;;;28.05;nan;101288.03;5065718;28;19917;-96
2023/07/22 11:46:08;;;;;;;;;;;;;;;28.03;nan;101295.84;5060658;28;19916;-91
2023/07/22 11:48:33;;;;;;;;;;;;;;;28.08;nan;101292.03;5064619;28;19920;-89
2023/07/22 11:50:59;;;;;;;;;;;;;;;28.19;nan;101285.66;5065160;28;20289;-94
2023/07/22 11:53:27;;;;;;;;;;;;;;;28.36;nan;101284.50;5066026;28;19921;-93
2023/07/22 11:55:54;;;;;;;;;;;;;;;28.50;nan;101287.63;5069017;28;19982;-96
2023/07/22 11:58:26;;;;;;;;;;;;;;;28.66;nan;101284.84;5067545;28;19974;-95
2023/07/22 12:01:05;;;;;;;;;;;;;;;28.92;nan;101287.06;5058928;28;19920;-94
2023/07/22 12:03:32;;;;;;;;;;;;;;;29.27;nan;101294.53;5062938;28;20873;-92
2023/07/22 12:06:00;;;;;;;;;;;;;;;29.49;nan;101299.38;5055668;28;20334;-90
2023/07/22 12:08:25;;;;;;;;;;;;;;;29.70;nan;101287.94;5067805;28;19921;-96
2023/07/22 12:10:58;;;;;;;;;;;;;;;29.91;nan;101288.34;5067000;28;19923;-91
2023/07/22 12:13:23;;;;;;;;;;;;;;;29.94;nan;101287.59;5065118;28;19964;-95
2023/07/22 12:16:05;;;;;;;;;;;;;;;30.03;nan;101295.66;5062559;28;19971;-95
2023/07/22 12:18:43;;;;;;;;;;;;;;;29.89;nan;101281.59;5057881;28;19928;-94
2023/07/22 12:21:08;;;;;;;;;;;;;;;29.85;nan;101283.50;5059182;28;19920;-89
2023/07/22 12:23:34;;;;;;;;;;;;;;;29.71;nan;101284.81;5056747;28;19928;-93
2023/07/22 12:25:59;;;;;;;;;;;;;;;29.62;nan;101286.19;5064919;28;19975;-87
2023/07/22 12:28:25;;;;;;;;;;;;;;;29.49;nan;101291.09;5066035;28;20002;-94
2023/07/22 12:30:50;;;;;;;;;;;;;;;29.44;nan;101292.16;5060941;28;19928;-95
2023/07/22 12:33:15;;;;;;;;;;;;;;;29.45;nan;101287.44;5060812;28;20082;-87
2023/07/22 12:35:40;;;;;;;;;;;;;;;29.47;nan;101285.13;5062471;28;20019;-88
2023/07/22 12:38:06;;;;;;;;;;;;;;;29.62;nan;101286.19;5066313;28;19925;-91
2023/07/22 12:40:31;;;;;;;;;;;;;;;29.85;nan;101276.00;5062216;28;19920;-91
2023/07/22 12:42:56;;;;;;;;;;;;;;;30.01;nan;101276.69;5059573;28;19992;-89
2023/07/22 12:45:22;;;;;;;;;;;;;;;30.23;nan;101279.88;5060692;28;19920;-90
2023/07/22 12:47:48;;;;;;;;;;;;;;;30.40;nan;101279.34;5060753;28;19931;-89
2023/07/22 12:50:13;;;;;;;;;;;;;;;30.42;nan;101273.47;5060526;28;19916;-85
2023/07/22 12:52:39;;;;;;;;;;;;;;;30.44;nan;101271.91;5058662;28;20377;-90